Aviation Digital Data Service (ADDS)

Output produced by METARs form (2220 UTC 10 December 2016)
found at http://aviationweather.gov/adds/metars/
 
KPHF 101722Z 1018/1118 28006KT P6SM SKC 
     FM111400 09004KT P6SM SCT200